Airfield :
LOGIN :

Register | Disclaimer

   EN    FR    IT 

 










Legend :    VFR   Marginal VFR   IFR   Intensive IFR   Very Intensive IFR
Visi :
Ceiling :
>= 8 km
>= 3000ft
5 to 8 km
1000 to 3000 ft
1500m to 5 km
500 to 1000 ft
800 to 1500m
200 to 500 ft
< 800m
< 200 ft
Symbols :   Thunderstorms  Fog  Heavy snow  Heavy precipitations  Wind > 20 kt
SIGMETs :     Misc.  Thunderstorms  Icing  Turbulence  Mountain Waves  Volcanic Ashes






- Airport Elevation : 412 ft
- IATA code : ORE


LFOJ - Orleans

CURRENT METAR :
  • 210500Z AUTO 26015KT 9999 FEW014 SCT050 07/04 Q0997

EXPIRED METARs :
  • 210430Z AUTO 27011KT 9999 SCT013 BKN025 BKN040 07/06 Q0996
  • 210400Z AUTO 25024G39KT 200V280 4500 -RA BR BKN007/// BKN012/// BKN017/// ///CB 08/06 Q0995
  • 210330Z AUTO 20023KT 6000 RA BKN011/// BKN017/// OVC023/// ///CB 10/09 Q0993
  • 210300Z AUTO 20025KT 6000 -RA BKN016/// OVC022/// ///TCU 10/08 Q0993
  • 210230Z AUTO 20025G38KT 9999 OVC021/// ///TCU 11/07 Q0993

TAF AMD TAF LFOJ
Valid from the 20 at 16:00 until the 21 at 15:00 UTC


201627Z 2016/2115 19015G25KT CAVOK TX12/2016Z TN07/2106Z
TEMPO 2016/2021 20025G35KT
TEMPO 2019/2107 3000 -RA BKN014
PROB40
TEMPO 2021/2107 20025G40KT 4000 -SHRA SCT025TCU
TEMPO 2113/2115 20020G40KT 3000 -RA BKN020



MET'MAP, your aeronautical weather chart ! - Copyright ORBIFLY December 2007 - Disclaimer

ORBIFLY MET'MAP TEAM :

Programming & Development : Alexandra Zaïnal
Concept & original design : Baudouin d'Aumeries
Assistance for programming : Marc-Olivier Méhu
Technical & hardware support : Manuel Goepfert

Contact : metmap@orbifly.com




SOURCES & CREDITS :

   NOAA